createdAt,value
2023-03-31T00:00:36.500Z,4.03
2023-03-31T00:03:10.154Z,4.05
2023-03-31T00:05:37.979Z,4.38
2023-03-31T00:08:05.196Z,3.97
2023-03-31T00:10:34.006Z,3.80
2023-03-31T00:13:01.895Z,4.00
2023-03-31T00:15:29.546Z,3.97
2023-03-31T00:18:00.569Z,4.65
2023-03-31T00:20:28.132Z,4.32
2023-03-31T00:22:54.815Z,4.30
2023-03-31T00:25:21.602Z,4.78
2023-03-31T00:27:50.377Z,4.35
2023-03-31T00:30:17.157Z,4.47
2023-03-31T00:32:44.125Z,4.35
2023-03-31T00:35:11.517Z,4.00
2023-03-31T00:37:58.042Z,4.85
2023-03-31T00:40:25.012Z,4.55
2023-03-31T00:42:52.076Z,4.38
2023-03-31T00:45:23.538Z,4.63
2023-03-31T00:48:06.283Z,4.90
2023-03-31T00:50:40.737Z,3.95
2023-03-31T00:53:12.060Z,4.82
2023-03-31T00:55:45.130Z,4.95
2023-03-31T00:58:20.258Z,4.60
2023-03-31T01:00:52.977Z,5.13
2023-03-31T01:03:22.853Z,4.45
2023-03-31T01:05:55.600Z,4.32
2023-03-31T01:08:26.041Z,4.40
2023-03-31T01:11:00.493Z,4.88
2023-03-31T01:13:28.868Z,4.88
2023-03-31T01:15:55.665Z,4.75
2023-03-31T01:18:23.265Z,4.47
2023-03-31T01:20:52.658Z,4.15
2023-03-31T01:23:39.010Z,3.90
2023-03-31T01:26:32.188Z,4.28
2023-03-31T01:29:08.955Z,3.80
2023-03-31T01:32:13.181Z,4.15
2023-03-31T01:34:58.175Z,4.18
2023-03-31T01:37:37.752Z,4.00
2023-03-31T01:40:23.811Z,3.88
2023-03-31T01:43:07.094Z,4.35
2023-03-31T01:45:55.033Z,3.83
2023-03-31T01:48:30.136Z,4.68
2023-03-31T01:51:00.389Z,3.72
2023-03-31T01:53:49.083Z,3.90
2023-03-31T01:56:23.757Z,4.05
2023-03-31T01:58:54.868Z,3.80
2023-03-31T02:01:26.387Z,3.67
2023-03-31T02:04:17.522Z,3.58
2023-03-31T02:06:53.054Z,3.83
2023-03-31T02:09:25.177Z,3.78
2023-03-31T02:11:53.925Z,3.60
2023-03-31T02:14:24.684Z,3.80
2023-03-31T02:16:58.631Z,3.42
2023-03-31T02:19:32.530Z,3.22
2023-03-31T02:22:03.611Z,3.08
2023-03-31T02:24:31.973Z,3.70
2023-03-31T02:27:05.796Z,3.42
2023-03-31T02:29:33.066Z,3.38
2023-03-31T02:32:22.185Z,3.20
2023-03-31T02:34:49.665Z,3.35
2023-03-31T02:37:17.076Z,3.05
2023-03-31T02:39:48.916Z,3.45
2023-03-31T02:42:16.128Z,3.38
2023-03-31T02:44:43.138Z,3.58
2023-03-31T02:47:14.008Z,3.15
2023-03-31T02:49:54.093Z,3.45
2023-03-31T02:52:29.917Z,3.47
2023-03-31T02:55:18.354Z,3.58
2023-03-31T02:58:12.515Z,2.92
2023-03-31T03:01:18.592Z,3.30
2023-03-31T03:04:17.058Z,3.08
2023-03-31T03:07:03.660Z,2.80
2023-03-31T03:09:52.111Z,3.08
2023-03-31T03:12:41.582Z,3.00
2023-03-31T03:15:28.443Z,3.10
2023-03-31T03:17:56.496Z,3.55
2023-03-31T03:20:23.801Z,3.50
2023-03-31T03:22:51.012Z,3.35
2023-03-31T03:25:18.276Z,3.22
2023-03-31T03:27:45.166Z,3.25
2023-03-31T03:30:13.641Z,2.90
2023-03-31T03:32:41.696Z,2.97
2023-03-31T03:35:09.015Z,3.30
2023-03-31T03:37:36.136Z,3.15
2023-03-31T03:40:06.038Z,3.08
2023-03-31T03:42:34.409Z,3.28
2023-03-31T03:45:01.722Z,2.92
2023-03-31T03:47:29.057Z,2.67
2023-03-31T03:49:56.520Z,3.05
2023-03-31T03:52:23.377Z,2.70
2023-03-31T03:54:50.658Z,2.80
2023-03-31T03:57:17.538Z,3.00
2023-03-31T03:59:44.330Z,2.83
2023-03-31T04:02:11.319Z,3.13
2023-03-31T04:04:38.236Z,3.25
2023-03-31T04:07:05.578Z,2.53
2023-03-31T04:09:32.508Z,3.00
2023-03-31T04:11:59.296Z,2.70
2023-03-31T04:14:26.194Z,2.88
2023-03-31T04:16:56.225Z,2.90
2023-03-31T04:19:26.036Z,2.90
2023-03-31T04:21:59.130Z,2.78
2023-03-31T04:24:33.307Z,3.13
2023-03-31T04:27:00.894Z,3.00
2023-03-31T04:29:27.682Z,3.13
2023-03-31T04:31:58.907Z,3.00
2023-03-31T04:34:34.760Z,3.15
2023-03-31T04:37:02.975Z,3.15
2023-03-31T04:39:30.946Z,3.00
2023-03-31T04:42:00.962Z,3.38
2023-03-31T04:44:28.262Z,3.97
2023-03-31T04:46:56.223Z,3.78
2023-03-31T04:49:23.167Z,3.72
2023-03-31T04:51:50.324Z,3.75
2023-03-31T04:54:17.299Z,3.72
2023-03-31T04:56:44.187Z,3.65
2023-03-31T04:59:11.235Z,4.22
2023-03-31T05:01:38.088Z,3.58
2023-03-31T05:04:05.723Z,3.70
2023-03-31T05:06:33.398Z,3.47
2023-03-31T05:09:00.308Z,3.60
2023-03-31T05:11:27.563Z,3.30
2023-03-31T05:13:54.881Z,3.40
2023-03-31T05:16:21.719Z,3.75
2023-03-31T05:18:48.542Z,3.88
2023-03-31T05:21:18.100Z,3.50
2023-03-31T05:23:45.994Z,3.55
2023-03-31T05:26:13.834Z,3.70
2023-03-31T05:28:41.558Z,3.38
2023-03-31T05:31:09.443Z,3.33
2023-03-31T05:33:40.456Z,3.25
2023-03-31T05:36:10.663Z,3.50
2023-03-31T05:38:38.101Z,3.08
2023-03-31T05:41:05.058Z,2.65
2023-03-31T05:43:31.938Z,2.80
2023-03-31T05:45:58.927Z,3.13
2023-03-31T05:48:25.769Z,3.13
2023-03-31T05:50:57.208Z,3.30
2023-03-31T05:53:24.178Z,3.50
2023-03-31T05:55:57.582Z,3.83
2023-03-31T05:58:24.516Z,4.80
2023-03-31T06:00:53.998Z,6.07
2023-03-31T06:03:20.905Z,6.05
2023-03-31T06:05:49.206Z,4.22
2023-03-31T06:08:15.979Z,3.92
2023-03-31T06:10:42.942Z,3.75
2023-03-31T06:13:09.810Z,3.90
2023-03-31T06:15:36.740Z,3.40
2023-03-31T06:18:03.729Z,2.97
2023-03-31T06:20:30.651Z,2.92
2023-03-31T06:22:57.812Z,2.53
2023-03-31T06:25:24.669Z,3.28
2023-03-31T06:27:51.369Z,3.05
2023-03-31T06:30:18.182Z,3.28
2023-03-31T06:32:45.314Z,3.15
2023-03-31T06:35:12.293Z,2.90
2023-03-31T06:37:39.042Z,3.00
2023-03-31T06:40:06.440Z,3.40
2023-03-31T06:42:33.194Z,2.80
2023-03-31T06:45:00.162Z,2.65
2023-03-31T06:47:27.012Z,2.95
2023-03-31T06:49:53.728Z,2.78
2023-03-31T06:52:20.652Z,2.83
2023-03-31T06:54:47.347Z,2.50
2023-03-31T06:57:14.222Z,2.70
2023-03-31T06:59:41.092Z,2.42
2023-03-31T07:02:07.852Z,2.80
2023-03-31T07:04:34.585Z,2.97
2023-03-31T07:07:01.888Z,2.58
2023-03-31T07:09:28.787Z,3.20
2023-03-31T07:11:56.819Z,3.67
2023-03-31T07:14:23.937Z,3.85
2023-03-31T07:16:51.033Z,3.28
2023-03-31T07:19:18.218Z,3.30
2023-03-31T07:21:45.815Z,2.22
2023-03-31T07:24:12.587Z,2.10
2023-03-31T07:26:39.308Z,2.15
2023-03-31T07:29:06.634Z,2.30
2023-03-31T07:31:38.051Z,2.40
2023-03-31T07:34:04.916Z,1.77
2023-03-31T07:36:31.905Z,2.05
2023-03-31T07:38:58.935Z,1.95
2023-03-31T07:41:26.420Z,1.92
2023-03-31T07:43:53.329Z,2.10
2023-03-31T07:46:26.154Z,1.90
2023-03-31T07:48:54.714Z,1.80
2023-03-31T07:51:24.313Z,1.48
2023-03-31T07:53:52.653Z,1.60
2023-03-31T07:56:22.266Z,1.80
2023-03-31T07:58:49.444Z,1.63
2023-03-31T08:01:21.757Z,1.80
2023-03-31T08:03:48.959Z,1.83
2023-03-31T08:06:20.016Z,1.90
2023-03-31T08:08:46.857Z,1.70
2023-03-31T08:11:14.119Z,1.70
2023-03-31T08:13:41.033Z,1.80
2023-03-31T08:16:08.414Z,1.50
2023-03-31T08:18:35.523Z,1.80
2023-03-31T08:21:02.248Z,1.83
2023-03-31T08:23:29.004Z,2.00
2023-03-31T08:25:55.783Z,1.95
2023-03-31T08:28:22.865Z,1.55
2023-03-31T08:30:49.690Z,1.52
2023-03-31T08:33:16.442Z,1.83
2023-03-31T08:35:43.574Z,1.90
2023-03-31T08:38:10.459Z,1.50
2023-03-31T08:40:41.243Z,2.28
2023-03-31T08:43:16.771Z,2.80
2023-03-31T08:45:47.869Z,3.53
2023-03-31T08:48:14.821Z,2.00
2023-03-31T08:50:48.953Z,1.77
2023-03-31T08:53:28.915Z,1.50
2023-03-31T08:55:58.192Z,1.90
2023-03-31T08:58:41.347Z,1.70
2023-03-31T09:01:13.993Z,1.90
2023-03-31T09:04:11.026Z,2.20
2023-03-31T09:07:07.191Z,1.65
2023-03-31T09:10:07.154Z,1.60
2023-03-31T09:13:07.374Z,1.65
2023-03-31T09:15:55.953Z,1.60
2023-03-31T09:18:38.482Z,1.80
2023-03-31T09:21:25.538Z,1.83
2023-03-31T09:24:12.142Z,1.75
2023-03-31T09:26:45.104Z,1.40
2023-03-31T09:29:46.582Z,1.35
2023-03-31T09:32:22.125Z,1.60
2023-03-31T09:34:57.304Z,1.50
2023-03-31T09:37:30.963Z,1.40
2023-03-31T09:40:01.341Z,1.48
2023-03-31T09:42:28.236Z,1.42
2023-03-31T09:44:56.165Z,1.50
2023-03-31T09:47:32.751Z,1.80
2023-03-31T09:49:59.645Z,1.77
2023-03-31T09:52:29.545Z,1.48
2023-03-31T09:55:00.597Z,1.50
2023-03-31T09:57:34.418Z,1.52
2023-03-31T10:00:19.189Z,1.50
2023-03-31T10:02:56.785Z,1.85
2023-03-31T10:05:26.833Z,1.58
2023-03-31T10:08:16.955Z,1.52
2023-03-31T10:10:51.867Z,1.27
2023-03-31T10:13:35.600Z,1.52
2023-03-31T10:16:08.521Z,1.40
2023-03-31T10:18:37.968Z,1.60
2023-03-31T10:21:08.287Z,1.42
2023-03-31T10:23:36.279Z,1.42
2023-03-31T10:26:04.739Z,1.60
2023-03-31T10:28:35.424Z,1.23
2023-03-31T10:31:03.500Z,1.50
2023-03-31T10:33:34.992Z,1.52
2023-03-31T10:36:29.378Z,1.40
2023-03-31T10:38:56.969Z,1.83
2023-03-31T10:41:29.751Z,1.40
2023-03-31T10:43:58.628Z,1.73
2023-03-31T10:46:49.255Z,1.40
2023-03-31T10:49:25.683Z,1.65
2023-03-31T10:51:54.460Z,1.50
2023-03-31T10:54:21.525Z,1.50
2023-03-31T10:56:59.436Z,1.60
2023-03-31T10:59:38.448Z,1.50
2023-03-31T11:02:27.297Z,1.40
2023-03-31T11:05:02.019Z,1.77
2023-03-31T11:07:50.731Z,1.70
2023-03-31T11:10:42.018Z,1.55
2023-03-31T11:13:11.520Z,1.75
2023-03-31T11:15:38.425Z,1.98
2023-03-31T11:18:33.260Z,1.70
2023-03-31T11:21:15.156Z,2.00
2023-03-31T11:23:44.329Z,1.70
2023-03-31T11:26:17.852Z,1.80
2023-03-31T11:29:33.565Z,2.13
2023-03-31T11:32:38.184Z,1.90
2023-03-31T11:35:28.484Z,1.50
2023-03-31T11:38:11.690Z,1.75
2023-03-31T11:40:47.672Z,1.73
2023-03-31T11:43:21.586Z,1.92
2023-03-31T11:45:57.282Z,1.85
2023-03-31T11:48:36.426Z,1.58
2023-03-31T11:51:06.998Z,1.50
2023-03-31T11:53:37.624Z,1.98
2023-03-31T11:56:07.617Z,1.65
2023-03-31T11:58:56.326Z,1.75
2023-03-31T12:01:29.317Z,1.70
2023-03-31T12:04:11.086Z,1.65
2023-03-31T12:06:41.883Z,1.50
2023-03-31T12:09:27.585Z,1.60
2023-03-31T12:12:06.257Z,1.33
2023-03-31T12:15:12.960Z,1.67
2023-03-31T12:17:43.709Z,1.50
2023-03-31T12:20:25.407Z,1.40
2023-03-31T12:22:54.158Z,1.40
2023-03-31T12:25:23.239Z,1.50
2023-03-31T12:27:51.603Z,1.38
2023-03-31T12:30:21.549Z,1.70
2023-03-31T12:32:55.455Z,1.80
2023-03-31T12:35:27.442Z,1.70
2023-03-31T12:38:11.723Z,1.70
2023-03-31T12:40:44.377Z,1.70
2023-03-31T12:43:32.726Z,1.80
2023-03-31T12:46:12.995Z,3.55
2023-03-31T12:49:01.243Z,12.10
2023-03-31T12:51:27.916Z,4.07
2023-03-31T12:54:05.812Z,4.03
2023-03-31T12:57:00.824Z,2.10
2023-03-31T12:59:42.332Z,1.50
2023-03-31T13:02:16.336Z,1.50
2023-03-31T13:04:44.244Z,1.42
2023-03-31T13:07:28.285Z,1.88
2023-03-31T13:10:19.953Z,1.52
2023-03-31T13:13:07.128Z,1.33
2023-03-31T13:15:34.027Z,1.35
2023-03-31T13:18:06.901Z,1.48
2023-03-31T13:20:40.526Z,1.52
2023-03-31T13:23:24.263Z,1.17
2023-03-31T13:25:56.134Z,1.08
2023-03-31T13:28:22.878Z,1.20
2023-03-31T13:31:02.184Z,1.42
2023-03-31T13:33:35.230Z,2.63
2023-03-31T13:36:23.481Z,2.10
2023-03-31T13:39:32.142Z,3.03
2023-03-31T13:42:17.443Z,1.60
2023-03-31T13:45:09.014Z,1.55
2023-03-31T13:47:44.857Z,2.38
2023-03-31T13:50:33.231Z,1.30
2023-03-31T13:53:35.654Z,1.20
2023-03-31T13:56:07.752Z,1.27
2023-03-31T13:58:48.607Z,1.05
2023-03-31T14:01:39.385Z,1.05
2023-03-31T14:04:22.545Z,1.10
2023-03-31T14:06:55.955Z,0.90
2023-03-31T14:09:29.585Z,1.23
2023-03-31T14:12:01.592Z,1.55
2023-03-31T14:14:29.898Z,1.30
2023-03-31T14:17:02.860Z,1.15
2023-03-31T14:20:08.479Z,1.23
2023-03-31T14:23:03.909Z,1.73
2023-03-31T14:25:33.702Z,2.00
2023-03-31T14:28:28.566Z,1.58
2023-03-31T14:31:13.890Z,1.50
2023-03-31T14:34:19.489Z,1.35
2023-03-31T14:36:49.458Z,1.67
2023-03-31T14:39:21.795Z,1.50
2023-03-31T14:41:54.718Z,1.73
2023-03-31T14:44:22.109Z,1.60
2023-03-31T14:46:48.870Z,2.00
2023-03-31T14:49:22.123Z,1.90
2023-03-31T14:51:48.943Z,1.80
2023-03-31T14:54:18.544Z,1.63
2023-03-31T14:56:52.296Z,1.90
2023-03-31T14:59:23.206Z,1.75
2023-03-31T15:01:51.046Z,2.10
2023-03-31T15:04:28.807Z,2.08
2023-03-31T15:07:05.126Z,1.80
2023-03-31T15:09:36.047Z,1.73
2023-03-31T15:12:08.434Z,1.73
2023-03-31T15:14:45.726Z,1.88
2023-03-31T15:17:21.429Z,1.80
2023-03-31T15:19:54.338Z,1.60
2023-03-31T15:22:24.001Z,1.52
2023-03-31T15:24:50.817Z,1.75
2023-03-31T15:30:14.635Z,1.35
2023-03-31T15:32:41.999Z,1.83
2023-03-31T15:35:22.925Z,1.80
2023-03-31T15:37:52.921Z,1.73
2023-03-31T15:40:32.618Z,1.90
2023-03-31T15:45:48.161Z,1.83
2023-03-31T15:48:35.768Z,2.78
2023-03-31T15:51:36.452Z,1.92
2023-03-31T15:54:03.840Z,1.80
2023-03-31T15:56:40.929Z,2.00
2023-03-31T15:59:34.356Z,1.80
2023-03-31T16:02:05.882Z,2.00
2023-03-31T16:04:33.515Z,2.22
2023-03-31T16:07:22.476Z,2.45
2023-03-31T16:10:05.131Z,2.10
2023-03-31T16:12:40.855Z,2.10
2023-03-31T16:15:14.212Z,2.20
2023-03-31T16:17:48.589Z,3.05
2023-03-31T16:20:28.578Z,2.10
2023-03-31T16:23:01.453Z,2.40
2023-03-31T16:25:31.812Z,1.95
2023-03-31T16:28:01.004Z,2.30
2023-03-31T16:30:36.565Z,2.30
2023-03-31T16:33:12.188Z,2.25
2023-03-31T16:35:41.999Z,1.60
2023-03-31T16:38:11.123Z,2.03
2023-03-31T16:40:40.614Z,2.10
2023-03-31T16:43:19.709Z,1.60
2023-03-31T16:45:48.849Z,1.80
2023-03-31T16:48:17.720Z,2.10
2023-03-31T16:50:49.624Z,2.00
2023-03-31T16:53:18.894Z,1.60
2023-03-31T16:55:46.457Z,1.73
2023-03-31T16:58:13.340Z,1.77
2023-03-31T17:00:41.447Z,1.50
2023-03-31T17:03:10.314Z,1.58
2023-03-31T17:05:42.373Z,2.33
2023-03-31T17:08:10.347Z,2.42
2023-03-31T17:10:38.147Z,2.20
2023-03-31T17:13:05.338Z,1.90
2023-03-31T17:15:32.356Z,1.83
2023-03-31T17:17:59.410Z,1.90
2023-03-31T17:20:26.450Z,3.08
2023-03-31T17:22:54.228Z,3.50
2023-03-31T17:25:21.849Z,3.35
2023-03-31T17:27:48.748Z,3.90
2023-03-31T17:30:15.783Z,4.57
2023-03-31T17:32:42.827Z,3.40
2023-03-31T17:35:10.461Z,3.00
2023-03-31T17:37:38.648Z,2.45
2023-03-31T17:40:06.393Z,1.70
2023-03-31T17:42:33.289Z,1.83
2023-03-31T17:45:00.350Z,2.60
2023-03-31T17:47:27.879Z,2.13
2023-03-31T17:49:54.802Z,1.90
2023-03-31T17:52:21.545Z,1.70
2023-03-31T17:54:50.675Z,1.90
2023-03-31T17:57:17.852Z,1.73
2023-03-31T17:59:45.227Z,1.80
2023-03-31T18:02:16.242Z,1.83
2023-03-31T18:04:43.224Z,2.30
2023-03-31T18:07:10.555Z,3.15
2023-03-31T18:09:37.771Z,1.90
2023-03-31T18:12:05.010Z,1.70
2023-03-31T18:14:32.733Z,1.60
2023-03-31T18:16:59.531Z,1.67
2023-03-31T18:19:26.342Z,1.63
2023-03-31T18:21:53.099Z,1.67
2023-03-31T18:24:20.719Z,2.58
2023-03-31T18:26:47.546Z,3.70
2023-03-31T18:29:14.521Z,3.83
2023-03-31T18:31:41.801Z,3.78
2023-03-31T18:34:09.097Z,2.63
2023-03-31T18:36:36.017Z,2.10
2023-03-31T18:39:04.149Z,1.85
2023-03-31T18:41:30.938Z,1.90
2023-03-31T18:43:57.713Z,1.70
2023-03-31T18:46:24.592Z,2.17
2023-03-31T18:48:51.439Z,2.38
2023-03-31T18:51:18.435Z,2.53
2023-03-31T18:53:45.105Z,3.03
2023-03-31T18:56:12.119Z,3.00
2023-03-31T18:58:38.830Z,2.60
2023-03-31T19:01:05.838Z,2.83
2023-03-31T19:03:32.841Z,3.10
2023-03-31T19:06:05.397Z,3.35
2023-03-31T19:08:32.775Z,2.90
2023-03-31T19:11:21.308Z,3.03
2023-03-31T19:13:48.193Z,3.42
2023-03-31T19:16:15.244Z,3.75
2023-03-31T19:18:43.649Z,3.92
2023-03-31T19:21:11.031Z,2.17
2023-03-31T19:23:37.826Z,1.65
2023-03-31T19:26:05.137Z,1.13
2023-03-31T19:28:32.136Z,1.05
2023-03-31T19:30:59.461Z,1.00
2023-03-31T19:33:26.996Z,0.80
2023-03-31T19:35:53.980Z,0.70
2023-03-31T19:38:25.584Z,1.00
2023-03-31T19:40:52.991Z,0.90
2023-03-31T19:43:25.110Z,1.15
2023-03-31T19:45:53.633Z,0.73
2023-03-31T19:48:21.392Z,1.02
2023-03-31T19:50:56.030Z,3.22
2023-03-31T19:53:23.890Z,3.80
2023-03-31T19:55:56.880Z,3.72
2023-03-31T19:58:24.309Z,3.38
2023-03-31T20:00:52.835Z,2.80
2023-03-31T20:03:20.370Z,2.65
2023-03-31T20:05:48.138Z,2.70
2023-03-31T20:08:15.811Z,8.00
2023-03-31T20:10:42.945Z,7.60
2023-03-31T20:13:10.591Z,3.47
2023-03-31T20:15:38.963Z,2.72
2023-03-31T20:18:07.160Z,2.47
2023-03-31T20:20:34.173Z,2.40
2023-03-31T20:23:01.079Z,2.65
2023-03-31T20:25:27.887Z,2.17
2023-03-31T20:27:54.784Z,3.92
2023-03-31T20:30:21.668Z,2.90
2023-03-31T20:32:48.505Z,2.13
2023-03-31T20:35:15.338Z,1.40
2023-03-31T20:37:42.046Z,1.80
2023-03-31T20:40:09.421Z,2.15
2023-03-31T20:42:36.443Z,1.80
2023-03-31T20:45:03.768Z,1.50
2023-03-31T20:47:30.656Z,1.50
2023-03-31T20:49:57.482Z,1.40
2023-03-31T20:52:24.295Z,1.95
2023-03-31T20:54:51.251Z,2.45
2023-03-31T20:57:18.137Z,1.80
2023-03-31T20:59:45.462Z,1.92
2023-03-31T21:02:14.189Z,2.45
2023-03-31T21:04:41.245Z,1.80
2023-03-31T21:07:07.950Z,1.52
2023-03-31T21:09:34.943Z,1.33
2023-03-31T21:12:02.772Z,1.20
2023-03-31T21:14:30.125Z,0.82
2023-03-31T21:16:57.187Z,1.00
2023-03-31T21:19:24.046Z,1.08
2023-03-31T21:21:50.803Z,1.20
2023-03-31T21:24:17.538Z,1.33
2023-03-31T21:26:44.367Z,1.20
2023-03-31T21:29:11.255Z,2.10
2023-03-31T21:31:38.306Z,1.92
2023-03-31T21:34:05.366Z,1.35
2023-03-31T21:36:32.214Z,1.60
2023-03-31T21:38:58.981Z,1.63
2023-03-31T21:41:29.997Z,2.40
2023-03-31T21:44:00.554Z,2.00
2023-03-31T21:46:32.700Z,3.47
2023-03-31T21:48:59.846Z,2.03
2023-03-31T21:51:28.634Z,3.00
2023-03-31T21:53:55.877Z,2.00
2023-03-31T21:56:28.275Z,1.83
2023-03-31T21:58:59.017Z,1.58
2023-03-31T22:01:25.767Z,1.90
2023-03-31T22:03:52.861Z,2.38
2023-03-31T22:06:19.950Z,2.38
2023-03-31T22:08:46.698Z,2.70
2023-03-31T22:11:13.852Z,2.20
2023-03-31T22:13:41.372Z,2.17
2023-03-31T22:16:26.927Z,2.00
2023-03-31T22:18:54.470Z,2.00
2023-03-31T22:21:24.016Z,2.30
2023-03-31T22:23:52.980Z,2.17
2023-03-31T22:26:20.621Z,2.00
2023-03-31T22:28:47.921Z,2.17
2023-03-31T22:31:14.741Z,2.10
2023-03-31T22:33:41.526Z,1.65
2023-03-31T22:36:08.556Z,1.73
2023-03-31T22:38:35.729Z,1.90
2023-03-31T22:41:02.756Z,1.60
2023-03-31T22:43:29.586Z,1.70
2023-03-31T22:45:56.370Z,2.03
2023-03-31T22:48:23.191Z,1.60
2023-03-31T22:50:49.988Z,2.22
2023-03-31T22:53:16.839Z,1.73
2023-03-31T22:55:53.942Z,2.15
2023-03-31T22:58:21.616Z,2.60
2023-03-31T23:00:57.269Z,2.35
2023-03-31T23:03:24.674Z,2.40
2023-03-31T23:05:51.398Z,2.80
2023-03-31T23:08:18.486Z,2.97
2023-03-31T23:10:57.968Z,3.50
2023-03-31T23:13:26.107Z,3.53
2023-03-31T23:15:53.050Z,3.08
2023-03-31T23:18:20.010Z,2.65
2023-03-31T23:20:46.991Z,2.38
2023-03-31T23:23:13.849Z,2.30
2023-03-31T23:25:40.715Z,2.38
2023-03-31T23:28:07.463Z,2.22
2023-03-31T23:30:34.208Z,2.63
2023-03-31T23:33:01.118Z,2.33
2023-03-31T23:35:27.857Z,2.28
2023-03-31T23:37:54.651Z,2.25
2023-03-31T23:40:21.692Z,1.95
2023-03-31T23:42:48.739Z,2.10
2023-03-31T23:45:15.675Z,1.90
2023-03-31T23:47:42.675Z,1.73
2023-03-31T23:50:10.193Z,1.83
2023-03-31T23:52:36.996Z,1.85
2023-03-31T23:55:04.815Z,2.00
2023-03-31T23:57:31.622Z,1.63
2023-03-31T23:59:58.468Z,1.42
